createdAt,value
2022-12-18T00:03:28.604Z,-4.70
2022-12-18T00:08:31.242Z,-4.60
2022-12-18T00:13:36.502Z,-4.80
2022-12-18T00:18:40.508Z,-4.90
2022-12-18T00:23:45.307Z,-4.90
2022-12-18T00:28:47.923Z,-4.90
2022-12-18T00:33:54.185Z,-5.00
2022-12-18T00:39:00.140Z,-4.90
2022-12-18T00:44:03.090Z,-5.00
2022-12-18T00:49:06.077Z,-5.10
2022-12-18T00:54:08.907Z,-5.20
2022-12-18T00:59:11.499Z,-5.40
2022-12-18T01:04:15.431Z,-5.20
2022-12-18T01:09:21.211Z,-5.30
2022-12-18T01:14:23.617Z,-5.20
2022-12-18T01:19:26.020Z,-5.30
2022-12-18T01:24:28.427Z,-5.20
2022-12-18T01:29:30.912Z,-5.20
2022-12-18T01:34:33.490Z,-5.10
2022-12-18T01:39:35.947Z,-5.40
2022-12-18T01:45:01.286Z,-5.40
2022-12-18T01:50:15.826Z,-5.60
2022-12-18T01:55:21.170Z,-5.60
2022-12-18T02:00:26.140Z,-5.50
2022-12-18T02:05:38.226Z,-5.60
2022-12-18T02:10:47.004Z,-5.50
2022-12-18T02:16:08.684Z,-5.50
2022-12-18T02:21:22.070Z,-5.30
2022-12-18T02:26:48.575Z,-5.30
2022-12-18T02:31:57.689Z,-5.30
2022-12-18T02:37:04.988Z,-5.30
2022-12-18T02:42:09.154Z,-5.20
2022-12-18T02:47:13.986Z,-5.30
2022-12-18T02:52:35.706Z,-5.30
2022-12-18T02:57:57.998Z,-5.20
2022-12-18T03:03:31.480Z,-5.30
2022-12-18T03:08:40.480Z,-5.40
2022-12-18T03:13:51.903Z,-5.30
2022-12-18T03:19:16.001Z,-5.30
2022-12-18T03:24:20.928Z,-5.50
2022-12-18T03:29:33.988Z,-5.50
2022-12-18T03:34:40.627Z,-5.50
2022-12-18T03:39:45.702Z,-5.50
2022-12-18T03:45:10.663Z,-5.40
2022-12-18T03:50:17.766Z,-5.50
2022-12-18T03:55:26.776Z,-5.40
2022-12-18T04:00:35.803Z,-5.60
2022-12-18T04:05:45.584Z,-5.50
2022-12-18T04:10:48.762Z,-5.50
2022-12-18T04:15:51.229Z,-5.50
2022-12-18T04:20:55.732Z,-5.40
2022-12-18T04:25:58.899Z,-5.20
2022-12-18T04:31:24.101Z,-5.10
2022-12-18T04:36:27.060Z,-5.20
2022-12-18T04:41:30.608Z,-5.20
2022-12-18T04:46:33.957Z,-5.20
2022-12-18T04:51:36.424Z,-5.20
2022-12-18T04:56:38.824Z,-5.20
2022-12-18T05:01:41.424Z,-5.30
2022-12-18T05:06:44.778Z,-5.40
2022-12-18T05:11:47.962Z,-5.40
2022-12-18T05:16:50.303Z,-5.40
2022-12-18T05:21:52.651Z,-5.40
2022-12-18T05:26:55.076Z,-5.50
2022-12-18T05:31:57.534Z,-5.40
2022-12-18T05:36:59.932Z,-5.40
2022-12-18T05:42:02.309Z,-5.40
2022-12-18T05:47:05.300Z,-5.50
2022-12-18T05:52:07.813Z,-5.40
2022-12-18T05:57:10.167Z,-5.50
2022-12-18T06:02:12.876Z,-5.40
2022-12-18T06:07:15.706Z,-5.50
2022-12-18T06:12:18.114Z,-5.50
2022-12-18T06:17:20.559Z,-5.50
2022-12-18T06:22:22.966Z,-5.40
2022-12-18T06:27:25.415Z,-5.30
2022-12-18T06:32:28.470Z,-5.30
2022-12-18T06:37:32.583Z,-5.20
2022-12-18T06:42:35.110Z,-5.30
2022-12-18T06:47:37.548Z,-5.30
2022-12-18T06:52:41.317Z,-5.20
2022-12-18T06:57:43.817Z,-5.20
2022-12-18T07:02:46.408Z,-5.20
2022-12-18T07:07:48.922Z,-5.20
2022-12-18T07:12:51.423Z,-5.10
2022-12-18T07:17:53.771Z,-5.00
2022-12-18T07:22:56.444Z,-5.00
2022-12-18T07:27:58.973Z,-4.90
2022-12-18T07:33:01.384Z,-4.90
2022-12-18T07:38:03.860Z,-4.80
2022-12-18T07:43:06.274Z,-4.80
2022-12-18T07:48:08.728Z,-4.70
2022-12-18T07:53:11.106Z,-4.60
2022-12-18T07:58:13.966Z,-4.60
2022-12-18T08:03:16.863Z,-4.60
2022-12-18T08:08:19.516Z,-4.50
2022-12-18T08:13:22.293Z,-4.50
2022-12-18T08:18:26.609Z,-4.40
2022-12-18T08:23:29.041Z,-4.30
2022-12-18T08:28:31.447Z,-4.20
2022-12-18T08:33:34.250Z,-4.10
2022-12-18T08:38:37.047Z,-4.00
2022-12-18T08:43:58.352Z,-4.10
2022-12-18T08:49:04.284Z,-4.00
2022-12-18T08:54:07.509Z,-3.90
2022-12-18T08:59:19.187Z,-3.80
2022-12-18T09:04:22.652Z,-3.80
2022-12-18T09:09:25.698Z,-3.80
2022-12-18T09:14:28.160Z,-3.70
2022-12-18T09:19:30.587Z,-3.60
2022-12-18T09:24:32.995Z,-3.50
2022-12-18T09:29:35.358Z,-3.60
2022-12-18T09:34:37.702Z,-3.60
2022-12-18T09:39:40.115Z,-3.60
2022-12-18T09:44:53.211Z,-3.50
2022-12-18T09:49:59.368Z,-3.30
2022-12-18T09:55:33.548Z,-3.20
2022-12-18T10:00:39.055Z,-3.10
2022-12-18T10:06:11.896Z,-3.30
2022-12-18T10:11:25.637Z,-3.10
2022-12-18T10:17:00.749Z,-3.00
2022-12-18T10:22:19.198Z,-3.20
2022-12-18T10:27:27.744Z,-3.20
2022-12-18T10:32:31.897Z,-3.10
2022-12-18T10:37:34.256Z,-3.10
2022-12-18T10:42:36.731Z,-3.10
2022-12-18T10:47:49.354Z,-3.00
2022-12-18T10:52:57.286Z,-3.00
2022-12-18T10:58:34.929Z,-3.00
2022-12-18T11:03:45.109Z,-2.80
2022-12-18T11:09:23.101Z,-2.80
2022-12-18T11:14:35.505Z,-2.60
2022-12-18T11:19:40.826Z,-2.50
2022-12-18T11:24:43.411Z,-2.50
2022-12-18T11:29:51.457Z,-1.80
2022-12-18T11:35:29.653Z,-2.40
2022-12-18T11:40:43.378Z,-2.60
2022-12-18T11:46:35.536Z,-2.60
2022-12-18T11:52:16.537Z,-2.60
2022-12-18T11:58:02.008Z,-2.80
2022-12-18T12:03:04.428Z,-2.90
2022-12-18T12:08:41.389Z,-2.80
2022-12-18T12:14:16.897Z,-2.90
2022-12-18T12:19:55.573Z,-2.90
2022-12-18T12:25:08.896Z,-2.90
2022-12-18T12:30:49.681Z,-2.80
2022-12-18T12:36:03.852Z,-2.60
2022-12-18T12:41:30.530Z,-2.80
2022-12-18T12:46:38.087Z,-2.90
2022-12-18T12:51:43.623Z,-2.80
2022-12-18T12:57:05.180Z,-3.00
2022-12-18T13:02:25.570Z,-2.90
2022-12-18T13:07:34.721Z,-2.80
2022-12-18T13:12:55.738Z,-2.90
2022-12-18T13:18:10.314Z,-3.00
2022-12-18T13:23:25.422Z,-3.10
2022-12-18T13:28:34.613Z,-3.00
2022-12-18T13:34:01.929Z,-3.00
2022-12-18T13:39:21.253Z,-3.20
2022-12-18T13:44:40.015Z,-3.20
2022-12-18T13:49:45.155Z,-3.10
2022-12-18T13:54:53.646Z,-3.10
2022-12-18T13:59:57.830Z,-3.20
2022-12-18T14:05:01.708Z,-3.20
2022-12-18T14:10:26.045Z,-3.10
2022-12-18T14:15:27.010Z,-3.20
2022-12-18T14:20:32.791Z,-3.30
2022-12-18T14:25:35.206Z,-3.60
2022-12-18T14:30:40.113Z,-3.70
2022-12-18T14:36:04.375Z,-3.80
2022-12-18T14:41:20.956Z,-3.90
2022-12-18T14:46:44.816Z,-3.80
2022-12-18T14:51:58.555Z,-3.70
2022-12-18T14:57:06.880Z,-3.60
2022-12-18T15:02:21.378Z,-3.70
2022-12-18T15:07:25.055Z,-3.60
2022-12-18T15:12:37.186Z,-3.10
2022-12-18T15:17:39.841Z,-3.70
2022-12-18T15:22:43.001Z,-3.80
2022-12-18T15:27:48.258Z,-3.90
2022-12-18T15:32:51.746Z,-4.00
2022-12-18T15:37:54.177Z,-3.90
2022-12-18T15:43:15.698Z,-3.90
2022-12-18T15:48:23.522Z,-3.90
2022-12-18T15:53:30.622Z,-3.90
2022-12-18T15:58:33.950Z,-3.90
2022-12-18T16:03:36.404Z,-4.00
2022-12-18T16:08:38.938Z,-4.20
2022-12-18T16:13:42.987Z,-4.10
2022-12-18T16:18:45.672Z,-4.20
2022-12-18T16:23:48.068Z,-4.30
2022-12-18T16:28:50.521Z,-4.40
2022-12-18T16:34:20.245Z,-4.30
2022-12-18T16:39:25.948Z,-4.20
2022-12-18T16:44:29.006Z,-4.10
2022-12-18T16:49:31.678Z,-4.20
2022-12-18T16:54:36.627Z,-4.20
2022-12-18T16:59:39.059Z,-4.20
2022-12-18T17:04:42.265Z,-4.30
2022-12-18T17:09:44.751Z,-4.20
2022-12-18T17:14:47.117Z,-4.20
2022-12-18T17:19:49.881Z,-4.30
2022-12-18T17:24:52.301Z,-4.40
2022-12-18T17:29:55.502Z,-4.40
2022-12-18T17:35:00.520Z,-4.40
2022-12-18T17:40:07.246Z,-4.50
2022-12-18T17:45:10.067Z,-4.50
2022-12-18T17:50:12.503Z,-4.70
2022-12-18T17:55:15.104Z,-4.60
2022-12-18T18:00:17.917Z,-4.60
2022-12-18T18:05:20.391Z,-4.70
2022-12-18T18:10:23.971Z,-4.70
2022-12-18T18:15:26.405Z,-4.70
2022-12-18T18:20:30.526Z,-4.70
2022-12-18T18:25:36.846Z,-4.70
2022-12-18T18:30:39.945Z,-4.80
2022-12-18T18:35:59.130Z,-4.80
2022-12-18T18:41:03.394Z,-4.80
2022-12-18T18:46:06.632Z,-4.70
2022-12-18T18:51:12.606Z,-4.70
2022-12-18T18:56:45.328Z,-4.70
2022-12-18T19:01:50.610Z,-4.80
2022-12-18T19:06:53.194Z,-4.70
2022-12-18T19:12:16.156Z,-4.70
2022-12-18T19:17:27.960Z,-4.70
2022-12-18T19:22:32.218Z,-4.70
2022-12-18T19:27:38.561Z,-4.80
2022-12-18T19:32:41.915Z,-4.90
2022-12-18T19:37:44.441Z,-4.90
2022-12-18T19:42:46.960Z,-5.00
2022-12-18T19:47:50.415Z,-5.00
2022-12-18T19:52:52.814Z,-5.00
2022-12-18T19:57:56.743Z,-5.10
2022-12-18T20:03:07.603Z,-5.10
2022-12-18T20:08:15.381Z,-5.10
2022-12-18T20:13:18.012Z,-5.10
2022-12-18T20:18:20.413Z,-5.10
2022-12-18T20:23:23.071Z,-5.20
2022-12-18T20:28:25.966Z,-5.20
2022-12-18T20:33:29.677Z,-5.30
2022-12-18T20:38:33.131Z,-5.30
2022-12-18T20:43:36.628Z,-5.30
2022-12-18T20:48:41.298Z,-5.40
2022-12-18T20:53:47.029Z,-5.40
2022-12-18T20:58:53.627Z,-5.50
2022-12-18T21:04:00.811Z,-5.50
2022-12-18T21:09:03.434Z,-5.60
2022-12-18T21:14:23.810Z,-5.60
2022-12-18T21:19:27.243Z,-5.60
2022-12-18T21:24:32.856Z,-5.70
2022-12-18T21:29:35.605Z,-5.70
2022-12-18T21:34:41.165Z,-5.80
2022-12-18T21:39:46.970Z,-5.80
2022-12-18T21:44:49.727Z,-5.90
2022-12-18T21:49:52.979Z,-5.90
2022-12-18T21:54:55.516Z,-6.00
2022-12-18T21:59:57.970Z,-6.00
2022-12-18T22:05:00.380Z,-6.10
2022-12-18T22:10:03.083Z,-6.10
2022-12-18T22:15:06.049Z,-6.20
2022-12-18T22:20:10.238Z,-6.20
2022-12-18T22:25:12.774Z,-6.20
2022-12-18T22:30:15.159Z,-6.20
2022-12-18T22:35:18.146Z,-6.20
2022-12-18T22:40:25.339Z,-6.20
2022-12-18T22:45:28.184Z,-6.30
2022-12-18T22:50:32.189Z,-6.20
2022-12-18T22:55:34.680Z,-6.20
2022-12-18T23:00:37.142Z,-6.20
2022-12-18T23:05:39.524Z,-6.20
2022-12-18T23:10:41.987Z,-6.10
2022-12-18T23:15:44.407Z,-6.10
2022-12-18T23:20:46.778Z,-6.10
2022-12-18T23:25:49.870Z,-6.10
2022-12-18T23:30:52.305Z,-6.00
2022-12-18T23:35:59.639Z,-6.00
2022-12-18T23:41:10.911Z,-6.00
2022-12-18T23:46:33.195Z,-6.00
2022-12-18T23:51:38.421Z,-6.00
2022-12-18T23:56:42.142Z,-6.10
